createdAt,value
2023-02-27T00:00:38.939Z,77.34
2023-02-27T00:01:39.271Z,77.24
2023-02-27T00:02:39.624Z,77.14
2023-02-27T00:03:39.845Z,77.14
2023-02-27T00:04:40.179Z,77.14
2023-02-27T00:05:40.491Z,77.24
2023-02-27T00:06:40.801Z,77.34
2023-02-27T00:07:41.124Z,77.45
2023-02-27T00:08:41.515Z,77.45
2023-02-27T00:09:41.741Z,77.55
2023-02-27T00:10:41.930Z,77.55
2023-02-27T00:11:42.274Z,77.55
2023-02-27T00:12:42.581Z,77.55
2023-02-27T00:13:42.919Z,77.45
2023-02-27T00:14:43.271Z,77.42
2023-02-27T00:15:43.602Z,77.20
2023-02-27T00:16:43.917Z,77.10
2023-02-27T00:17:44.240Z,77.10
2023-02-27T00:18:44.553Z,77.00
2023-02-27T00:19:44.892Z,77.00
2023-02-27T00:20:45.212Z,77.10
2023-02-27T00:21:45.530Z,77.10
2023-02-27T00:22:45.877Z,77.20
2023-02-27T00:23:46.181Z,77.20
2023-02-27T00:24:46.518Z,77.20
2023-02-27T00:25:46.870Z,77.20
2023-02-27T00:26:47.171Z,77.20
2023-02-27T00:27:47.494Z,77.20
2023-02-27T00:28:47.810Z,77.31
2023-02-27T00:29:48.150Z,77.42
2023-02-27T00:30:48.529Z,77.52
2023-02-27T00:31:48.822Z,77.42
2023-02-27T00:32:49.054Z,77.42
2023-02-27T00:33:49.389Z,77.42
2023-02-27T00:34:49.719Z,77.42
2023-02-27T00:35:50.045Z,77.52
2023-02-27T00:36:50.361Z,77.52
2023-02-27T00:37:50.687Z,77.42
2023-02-27T00:38:51.020Z,77.52
2023-02-27T00:39:51.354Z,77.52
2023-02-27T00:40:51.668Z,77.62
2023-02-27T00:41:51.998Z,77.62
2023-02-27T00:42:52.316Z,77.66
2023-02-27T00:43:52.651Z,77.97
2023-02-27T00:44:52.988Z,78.18
2023-02-27T00:45:53.311Z,78.29
2023-02-27T00:46:53.678Z,78.39
2023-02-27T00:47:53.901Z,78.60
2023-02-27T00:49:01.744Z,78.64
2023-02-27T00:49:54.629Z,78.74
2023-02-27T00:50:54.782Z,78.85
2023-02-27T00:51:55.114Z,79.05
2023-02-27T00:52:55.430Z,79.27
2023-02-27T00:53:55.751Z,79.37
2023-02-27T00:54:56.068Z,79.47
2023-02-27T00:55:56.410Z,79.58
2023-02-27T00:56:56.751Z,79.58
2023-02-27T00:57:57.058Z,79.47
2023-02-27T00:58:57.377Z,79.47
2023-02-27T00:59:57.724Z,79.47
2023-02-27T01:00:57.958Z,79.33
2023-02-27T01:01:58.162Z,79.33
2023-02-27T01:02:58.526Z,79.23
2023-02-27T01:03:58.721Z,79.23
2023-02-27T01:04:59.065Z,79.23
2023-02-27T01:05:59.386Z,79.23
2023-02-27T01:06:59.696Z,79.13
2023-02-27T01:08:00.050Z,79.02
2023-02-27T01:09:00.364Z,78.91
2023-02-27T01:10:00.741Z,78.91
2023-02-27T01:11:01.027Z,78.67
2023-02-27T01:12:01.352Z,78.60
2023-02-27T01:13:01.657Z,78.46
2023-02-27T01:14:01.980Z,78.39
2023-02-27T01:15:02.323Z,78.39
2023-02-27T01:16:02.663Z,78.39
2023-02-27T01:17:02.980Z,78.50
2023-02-27T01:18:03.353Z,78.50
2023-02-27T01:19:03.540Z,78.50
2023-02-27T01:20:03.986Z,78.50
2023-02-27T01:21:04.172Z,78.60
2023-02-27T01:22:04.501Z,78.36
2023-02-27T01:23:04.790Z,78.25
2023-02-27T01:24:05.101Z,78.15
2023-02-27T01:25:05.442Z,78.04
2023-02-27T01:26:05.770Z,77.83
2023-02-27T01:27:06.083Z,77.52
2023-02-27T01:28:06.394Z,77.52
2023-02-27T01:29:06.701Z,77.52
2023-02-27T01:30:07.029Z,77.42
2023-02-27T01:31:07.344Z,77.28
2023-02-27T01:32:07.729Z,77.38
2023-02-27T01:33:07.926Z,77.38
2023-02-27T01:34:08.233Z,77.38
2023-02-27T01:35:08.582Z,77.38
2023-02-27T01:36:08.873Z,77.38
2023-02-27T01:37:09.204Z,77.17
2023-02-27T01:38:09.512Z,77.17
2023-02-27T01:39:09.830Z,77.17
2023-02-27T01:40:10.160Z,77.28
2023-02-27T01:41:10.473Z,77.28
2023-02-27T01:42:12.958Z,77.42
2023-02-27T01:43:11.043Z,77.31
2023-02-27T01:44:11.363Z,77.42
2023-02-27T01:45:11.698Z,77.42
2023-02-27T01:46:12.048Z,77.20
2023-02-27T01:47:12.242Z,77.20
2023-02-27T01:48:12.572Z,77.31
2023-02-27T01:49:12.901Z,77.31
2023-02-27T01:50:13.232Z,77.31
2023-02-27T01:51:13.567Z,77.31
2023-02-27T01:52:13.892Z,77.42
2023-02-27T01:53:14.215Z,77.45
2023-02-27T01:54:14.606Z,77.45
2023-02-27T01:55:14.843Z,77.66
2023-02-27T01:56:15.161Z,77.91
2023-02-27T01:57:15.483Z,77.91
2023-02-27T01:58:15.794Z,78.01
2023-02-27T01:59:16.115Z,78.22
2023-02-27T02:00:16.457Z,78.43
2023-02-27T02:01:16.820Z,78.64
2023-02-27T02:02:17.087Z,78.43
2023-02-27T02:03:17.321Z,78.64
2023-02-27T02:04:17.657Z,78.53
2023-02-27T02:05:18.015Z,78.53
2023-02-27T02:06:18.223Z,78.57
2023-02-27T02:07:18.533Z,78.57
2023-02-27T02:08:18.869Z,78.57
2023-02-27T02:09:19.183Z,78.67
2023-02-27T02:10:19.544Z,78.78
2023-02-27T02:11:19.751Z,79.30
2023-02-27T02:12:20.075Z,79.41
2023-02-27T02:13:20.397Z,79.27
2023-02-27T02:14:20.724Z,79.27
2023-02-27T02:15:21.059Z,79.30
2023-02-27T02:16:21.410Z,79.20
2023-02-27T02:17:21.731Z,79.41
2023-02-27T02:18:22.043Z,79.41
2023-02-27T02:19:22.373Z,79.51
2023-02-27T02:20:22.710Z,79.51
2023-02-27T02:21:23.023Z,79.55
2023-02-27T02:22:23.343Z,79.44
2023-02-27T02:23:23.677Z,79.55
2023-02-27T02:24:23.994Z,79.55
2023-02-27T02:25:24.324Z,79.65
2023-02-27T02:26:25.057Z,79.65
2023-02-27T02:27:24.936Z,79.86
2023-02-27T02:28:25.259Z,79.86
2023-02-27T02:29:25.583Z,79.97
2023-02-27T02:30:25.939Z,79.97
2023-02-27T02:31:26.496Z,79.97
2023-02-27T02:32:26.455Z,80.07
2023-02-27T02:33:26.657Z,80.18
2023-02-27T02:34:26.964Z,80.07
2023-02-27T02:35:27.303Z,80.07
2023-02-27T02:36:27.663Z,80.07
2023-02-27T02:37:27.977Z,80.07
2023-02-27T02:38:28.302Z,80.07
2023-02-27T02:39:28.622Z,79.97
2023-02-27T02:40:28.986Z,79.86
2023-02-27T02:41:29.211Z,79.75
2023-02-27T02:42:29.415Z,79.75
2023-02-27T02:43:29.747Z,79.75
2023-02-27T02:44:30.070Z,79.86
2023-02-27T02:45:30.408Z,79.86
2023-02-27T02:46:30.727Z,79.86
2023-02-27T02:47:31.037Z,79.97
2023-02-27T02:48:31.356Z,80.11
2023-02-27T02:49:31.670Z,80.18
2023-02-27T02:50:32.188Z,80.07
2023-02-27T02:51:32.228Z,79.97
2023-02-27T02:52:32.542Z,79.79
2023-02-27T02:53:36.981Z,79.75
2023-02-27T02:54:33.117Z,79.58
2023-02-27T02:55:33.447Z,79.58
2023-02-27T02:56:33.780Z,79.58
2023-02-27T02:57:34.107Z,79.69
2023-02-27T02:58:34.432Z,79.48
2023-02-27T02:59:34.753Z,79.38
2023-02-27T03:00:35.097Z,79.48
2023-02-27T03:01:35.498Z,79.58
2023-02-27T03:02:35.699Z,79.58
2023-02-27T03:03:36.020Z,79.69
2023-02-27T03:04:36.386Z,79.69
2023-02-27T03:05:36.587Z,79.79
2023-02-27T03:06:36.913Z,79.79
2023-02-27T03:07:37.279Z,79.79
2023-02-27T03:08:37.502Z,79.69
2023-02-27T03:09:37.825Z,79.58
2023-02-27T03:10:38.147Z,79.58
2023-02-27T03:11:38.463Z,79.69
2023-02-27T03:12:38.798Z,79.58
2023-02-27T03:13:39.130Z,79.58
2023-02-27T03:14:39.448Z,79.48
2023-02-27T03:15:39.790Z,79.27
2023-02-27T03:16:40.109Z,79.27
2023-02-27T03:17:40.420Z,79.27
2023-02-27T03:18:40.750Z,79.30
2023-02-27T03:19:41.058Z,79.30
2023-02-27T03:20:41.437Z,79.41
2023-02-27T03:21:41.611Z,79.52
2023-02-27T03:22:41.926Z,79.52
2023-02-27T03:23:42.246Z,79.62
2023-02-27T03:24:42.586Z,79.62
2023-02-27T03:25:42.914Z,79.62
2023-02-27T03:26:43.235Z,79.72
2023-02-27T03:27:43.562Z,79.72
2023-02-27T03:28:43.886Z,79.72
2023-02-27T03:29:44.205Z,79.72
2023-02-27T03:30:44.619Z,79.72
2023-02-27T03:31:44.986Z,79.72
2023-02-27T03:32:45.123Z,79.52
2023-02-27T03:33:45.455Z,79.30
2023-02-27T03:34:45.784Z,79.20
2023-02-27T03:35:46.115Z,79.10
2023-02-27T03:36:46.445Z,79.10
2023-02-27T03:37:46.770Z,79.30
2023-02-27T03:38:47.095Z,79.41
2023-02-27T03:39:47.416Z,79.52
2023-02-27T03:40:47.763Z,79.52
2023-02-27T03:41:47.965Z,79.52
2023-02-27T03:42:48.294Z,79.52
2023-02-27T03:43:48.613Z,79.62
2023-02-27T03:44:49.431Z,79.72
2023-02-27T03:45:49.295Z,79.83
2023-02-27T03:46:49.541Z,79.93
2023-02-27T03:47:49.873Z,79.93
2023-02-27T03:48:50.210Z,79.93
2023-02-27T03:49:50.527Z,79.93
2023-02-27T03:50:51.055Z,80.04
2023-02-27T03:51:51.214Z,80.00
2023-02-27T03:52:51.538Z,80.11
2023-02-27T03:53:51.847Z,80.00
2023-02-27T03:54:52.157Z,80.00
2023-02-27T03:55:52.503Z,79.90
2023-02-27T03:56:52.816Z,79.69
2023-02-27T03:57:53.133Z,79.58
2023-02-27T03:58:53.449Z,79.48
2023-02-27T03:59:53.777Z,79.38
2023-02-27T04:00:54.104Z,79.38
2023-02-27T04:01:54.491Z,79.38
2023-02-27T04:02:54.709Z,79.38
2023-02-27T04:03:54.913Z,79.38
2023-02-27T04:04:55.238Z,79.34
2023-02-27T04:05:55.575Z,79.38
2023-02-27T04:06:55.885Z,79.34
2023-02-27T04:07:56.211Z,79.44
2023-02-27T04:08:56.536Z,79.65
2023-02-27T04:09:56.883Z,79.86
2023-02-27T04:10:57.240Z,79.97
2023-02-27T04:11:57.432Z,80.07
2023-02-27T04:12:57.747Z,80.07
2023-02-27T04:13:58.087Z,80.28
2023-02-27T04:14:58.417Z,80.35
2023-02-27T04:15:58.777Z,80.46
2023-02-27T04:16:59.074Z,80.56
2023-02-27T04:17:59.405Z,80.56
2023-02-27T04:18:59.729Z,80.56
2023-02-27T04:20:00.055Z,80.66
2023-02-27T04:21:00.375Z,80.66
2023-02-27T04:22:00.696Z,80.77
2023-02-27T04:23:01.022Z,80.77
2023-02-27T04:24:01.336Z,80.87
2023-02-27T04:25:01.657Z,81.08
2023-02-27T04:26:01.996Z,81.19
2023-02-27T04:27:02.326Z,81.29
2023-02-27T04:28:02.657Z,81.29
2023-02-27T04:29:02.980Z,81.50
2023-02-27T04:30:03.331Z,81.57
2023-02-27T04:31:03.796Z,81.57
2023-02-27T04:32:03.991Z,81.46
2023-02-27T04:33:04.248Z,80.73
2023-02-27T04:34:04.570Z,80.52
2023-02-27T04:35:04.902Z,80.42
2023-02-27T04:36:05.257Z,80.46
2023-02-27T04:37:05.463Z,80.42
2023-02-27T04:38:05.793Z,80.42
2023-02-27T04:39:06.141Z,80.63
2023-02-27T04:40:06.465Z,80.94
2023-02-27T04:41:06.794Z,81.15
2023-02-27T04:42:07.146Z,81.26
2023-02-27T04:43:07.336Z,81.26
2023-02-27T04:44:07.672Z,81.46
2023-02-27T04:45:08.010Z,81.57
2023-02-27T04:46:08.419Z,81.67
2023-02-27T04:47:08.649Z,81.88
2023-02-27T04:48:08.978Z,81.99
2023-02-27T04:49:09.309Z,81.99
2023-02-27T04:50:09.648Z,81.88
2023-02-27T04:51:11.342Z,81.78
2023-02-27T04:52:10.218Z,81.57
2023-02-27T04:53:10.549Z,81.67
2023-02-27T04:54:10.893Z,81.88
2023-02-27T04:55:11.221Z,81.99
2023-02-27T04:56:11.548Z,81.78
2023-02-27T04:57:11.878Z,81.78
2023-02-27T04:58:12.216Z,81.88
2023-02-27T04:59:12.541Z,81.99
2023-02-27T05:00:12.876Z,82.09
2023-02-27T05:01:13.209Z,82.09
2023-02-27T05:02:13.651Z,82.20
2023-02-27T05:03:13.841Z,82.30
2023-02-27T05:04:14.152Z,82.30
2023-02-27T05:05:14.463Z,82.40
2023-02-27T05:06:14.802Z,82.51
2023-02-27T05:07:15.126Z,82.40
2023-02-27T05:08:15.466Z,82.40
2023-02-27T05:09:15.779Z,82.40
2023-02-27T05:10:16.102Z,82.30
2023-02-27T05:11:16.448Z,82.51
2023-02-27T05:12:16.790Z,82.62
2023-02-27T05:13:16.997Z,82.51
2023-02-27T05:14:17.324Z,82.40
2023-02-27T05:15:17.646Z,82.30
2023-02-27T05:16:18.026Z,82.51
2023-02-27T05:17:18.231Z,82.62
2023-02-27T05:18:18.557Z,82.62
2023-02-27T05:19:18.908Z,82.72
2023-02-27T05:20:19.229Z,82.82
2023-02-27T05:21:19.578Z,82.93
2023-02-27T05:22:19.778Z,82.82
2023-02-27T05:23:20.110Z,82.72
2023-02-27T05:24:20.447Z,82.72
2023-02-27T05:25:20.775Z,82.82
2023-02-27T05:26:21.110Z,82.82
2023-02-27T05:27:21.428Z,82.93
2023-02-27T05:28:21.757Z,83.03
2023-02-27T05:29:22.891Z,83.03
2023-02-27T05:30:22.402Z,82.93
2023-02-27T05:31:22.788Z,83.03
2023-02-27T05:32:22.980Z,83.03
2023-02-27T05:33:23.299Z,82.93
2023-02-27T05:34:23.627Z,82.93
2023-02-27T05:35:23.940Z,82.93
2023-02-27T05:36:24.289Z,83.03
2023-02-27T05:37:24.604Z,83.03
2023-02-27T05:38:24.939Z,83.03
2023-02-27T05:39:25.266Z,82.82
2023-02-27T05:40:25.630Z,82.82
2023-02-27T05:41:26.333Z,82.72
2023-02-27T05:42:26.238Z,82.72
2023-02-27T05:43:26.586Z,82.72
2023-02-27T05:44:26.918Z,82.82
2023-02-27T05:45:27.252Z,82.82
2023-02-27T05:46:27.640Z,82.82
2023-02-27T05:47:27.856Z,82.82
2023-02-27T05:48:28.204Z,82.72
2023-02-27T05:49:28.431Z,82.72
2023-02-27T05:50:28.773Z,82.82
2023-02-27T05:51:29.416Z,82.93
2023-02-27T05:52:29.437Z,83.14
2023-02-27T05:53:29.664Z,83.00
2023-02-27T05:54:29.886Z,83.00
2023-02-27T05:55:30.216Z,82.79
2023-02-27T05:56:30.622Z,82.68
2023-02-27T05:57:30.823Z,82.37
2023-02-27T05:58:31.167Z,82.16
2023-02-27T05:59:31.402Z,82.26
2023-02-27T06:00:31.629Z,82.37
2023-02-27T06:01:31.889Z,82.47
2023-02-27T06:02:32.132Z,82.58
2023-02-27T06:03:32.420Z,82.58
2023-02-27T06:04:32.680Z,82.58
2023-02-27T06:05:32.912Z,82.68
2023-02-27T06:06:33.172Z,82.68
2023-02-27T06:07:33.400Z,82.79
2023-02-27T06:08:33.648Z,82.89
2023-02-27T06:09:33.873Z,82.86
2023-02-27T06:10:34.109Z,82.96
2023-02-27T06:11:34.350Z,83.06
2023-02-27T06:12:34.573Z,83.06
2023-02-27T06:13:34.805Z,82.96
2023-02-27T06:14:35.048Z,82.86
2023-02-27T06:15:35.277Z,82.86
2023-02-27T06:16:35.535Z,82.86
2023-02-27T06:17:35.758Z,82.86
2023-02-27T06:18:36.023Z,82.86
2023-02-27T06:19:36.249Z,82.96
2023-02-27T06:20:36.496Z,82.96
2023-02-27T06:21:36.735Z,82.96
2023-02-27T06:22:36.956Z,82.96
2023-02-27T06:23:37.193Z,82.96
2023-02-27T06:24:37.549Z,82.96
2023-02-27T06:25:37.814Z,82.96
2023-02-27T06:26:38.063Z,82.92
2023-02-27T06:27:38.284Z,82.82
2023-02-27T06:28:38.648Z,82.71
2023-02-27T06:29:38.886Z,82.40
2023-02-27T06:30:39.148Z,82.19
2023-02-27T06:31:39.413Z,81.98
2023-02-27T06:32:39.652Z,81.77
2023-02-27T06:33:39.861Z,81.67
2023-02-27T06:34:40.229Z,81.56
2023-02-27T06:35:40.454Z,81.56
2023-02-27T06:36:40.710Z,81.67
2023-02-27T06:37:40.953Z,81.77
2023-02-27T06:38:41.225Z,81.98
2023-02-27T06:39:41.477Z,81.98
2023-02-27T06:40:41.723Z,82.19
2023-02-27T06:41:41.948Z,82.09
2023-02-27T06:42:42.220Z,82.29
2023-02-27T06:43:42.461Z,82.19
2023-02-27T06:44:42.761Z,82.19
2023-02-27T06:45:42.988Z,82.29
2023-02-27T06:46:43.254Z,82.40
2023-02-27T06:47:43.483Z,82.29
2023-02-27T06:48:51.291Z,82.33
2023-02-27T06:49:44.012Z,82.40
2023-02-27T06:50:44.251Z,82.50
2023-02-27T06:51:45.160Z,82.50
2023-02-27T06:52:44.722Z,82.29
2023-02-27T06:53:44.988Z,82.19
2023-02-27T06:54:45.203Z,82.19
2023-02-27T06:55:45.449Z,82.40
2023-02-27T06:56:45.691Z,82.50
2023-02-27T06:57:45.921Z,82.50
2023-02-27T06:58:46.173Z,82.46
2023-02-27T06:59:46.390Z,82.36
2023-02-27T07:00:46.653Z,82.15
2023-02-27T07:01:46.908Z,82.05
2023-02-27T07:02:47.124Z,82.05
2023-02-27T07:03:47.353Z,82.05
2023-02-27T07:04:47.647Z,82.05
2023-02-27T07:05:47.909Z,82.05
2023-02-27T07:07:32.339Z,81.95
2023-02-27T07:07:49.473Z,81.84
2023-02-27T07:08:54.031Z,81.84
2023-02-27T07:09:50.103Z,81.95
2023-02-27T07:10:49.417Z,81.95
2023-02-27T07:11:49.654Z,82.15
2023-02-27T07:12:49.892Z,82.12
2023-02-27T07:13:50.185Z,82.12
2023-02-27T07:14:50.406Z,82.12
2023-02-27T07:15:50.660Z,81.70
2023-02-27T07:16:51.057Z,81.59
2023-02-27T07:17:51.208Z,81.59
2023-02-27T07:18:51.485Z,81.49
2023-02-27T07:19:51.720Z,81.35
2023-02-27T07:20:51.961Z,81.35
2023-02-27T07:21:52.240Z,81.35
2023-02-27T07:22:52.456Z,81.24
2023-02-27T07:23:52.686Z,81.24
2023-02-27T07:24:52.931Z,81.03
2023-02-27T07:25:53.163Z,81.03
2023-02-27T07:26:53.408Z,81.03
2023-02-27T07:27:53.636Z,81.13
2023-02-27T07:28:53.915Z,81.13
2023-02-27T07:29:54.139Z,81.24
2023-02-27T07:30:54.453Z,81.35
2023-02-27T07:31:54.709Z,81.35
2023-02-27T07:32:54.959Z,81.35
2023-02-27T07:33:55.184Z,81.03
2023-02-27T07:34:55.439Z,81.03
2023-02-27T07:35:55.694Z,81.24
2023-02-27T07:36:55.987Z,81.24
2023-02-27T07:37:56.212Z,81.24
2023-02-27T07:38:56.453Z,81.24
2023-02-27T07:39:56.700Z,81.24
2023-02-27T07:40:56.931Z,81.24
2023-02-27T07:41:57.182Z,81.35
2023-02-27T07:42:57.548Z,81.24
2023-02-27T07:43:57.667Z,81.10
2023-02-27T07:44:57.917Z,81.10
2023-02-27T07:45:58.151Z,81.10
2023-02-27T07:46:58.494Z,80.99
2023-02-27T07:47:58.725Z,80.99
2023-02-27T07:48:58.981Z,80.96
2023-02-27T07:49:59.205Z,80.75
2023-02-27T07:50:59.454Z,80.85
2023-02-27T07:51:59.711Z,80.85
2023-02-27T07:52:59.938Z,80.85
2023-02-27T07:54:00.183Z,80.96
2023-02-27T07:55:00.456Z,80.96
2023-02-27T07:56:00.694Z,80.96
2023-02-27T07:57:00.941Z,80.75
2023-02-27T07:58:01.171Z,80.75
2023-02-27T07:59:01.438Z,80.65
2023-02-27T08:00:01.696Z,80.61
2023-02-27T08:01:01.944Z,80.61
2023-02-27T08:02:02.182Z,80.30
2023-02-27T08:03:02.469Z,80.30
2023-02-27T08:04:02.687Z,80.19
2023-02-27T08:05:02.973Z,80.19
2023-02-27T08:06:03.196Z,79.98
2023-02-27T08:07:03.467Z,79.67
2023-02-27T08:08:03.690Z,79.57
2023-02-27T08:09:03.963Z,79.67
2023-02-27T08:10:04.214Z,79.81
2023-02-27T08:11:04.431Z,80.02
2023-02-27T08:12:04.683Z,80.13
2023-02-27T08:13:04.930Z,80.33
2023-02-27T08:14:05.157Z,80.44
2023-02-27T08:15:05.432Z,80.54
2023-02-27T08:16:05.749Z,80.75
2023-02-27T08:17:05.939Z,80.99
2023-02-27T08:18:06.209Z,81.31
2023-02-27T08:19:06.430Z,81.48
2023-02-27T08:20:06.679Z,81.59
2023-02-27T08:21:06.910Z,81.69
2023-02-27T08:22:07.182Z,81.69
2023-02-27T08:23:07.421Z,81.79
2023-02-27T08:24:07.670Z,81.79
2023-02-27T08:25:07.936Z,81.69
2023-02-27T08:26:08.188Z,81.69
2023-02-27T08:27:08.435Z,81.69
2023-02-27T08:28:08.671Z,81.65
2023-02-27T08:29:08.899Z,81.45
2023-02-27T08:30:09.139Z,81.34
2023-02-27T08:31:09.451Z,81.34
2023-02-27T08:32:09.735Z,81.34
2023-02-27T08:33:09.979Z,81.34
2023-02-27T08:34:11.019Z,81.34
2023-02-27T08:35:10.518Z,81.02
2023-02-27T08:36:10.809Z,80.92
2023-02-27T08:37:11.057Z,81.13
2023-02-27T08:38:11.278Z,81.23
2023-02-27T08:39:12.496Z,81.23
2023-02-27T08:40:11.781Z,80.99
2023-02-27T08:41:12.013Z,80.99
2023-02-27T08:42:12.282Z,80.99
2023-02-27T08:43:12.508Z,80.88
2023-02-27T08:44:12.760Z,80.88
2023-02-27T08:45:12.980Z,81.09
2023-02-27T08:46:13.276Z,81.20
2023-02-27T08:47:13.620Z,81.09
2023-02-27T08:48:13.890Z,81.09
2023-02-27T08:49:14.109Z,80.99
2023-02-27T08:50:14.352Z,80.99
2023-02-27T08:51:14.582Z,81.09
2023-02-27T08:52:14.838Z,81.20
2023-02-27T08:53:15.068Z,81.41
2023-02-27T08:54:15.308Z,81.51
2023-02-27T08:55:15.600Z,81.62
2023-02-27T08:56:15.849Z,81.72
2023-02-27T08:57:16.077Z,81.72
2023-02-27T08:58:18.066Z,81.62
2023-02-27T08:59:16.548Z,81.16
2023-02-27T09:00:16.866Z,81.16
2023-02-27T09:01:17.127Z,81.16
2023-02-27T09:02:17.430Z,81.26
2023-02-27T09:03:17.652Z,81.16
2023-02-27T09:04:17.880Z,81.16
2023-02-27T09:05:18.125Z,81.16
2023-02-27T09:06:18.392Z,80.91
2023-02-27T09:07:18.611Z,80.81
2023-02-27T09:08:18.834Z,80.91
2023-02-27T09:09:19.097Z,81.02
2023-02-27T09:10:19.305Z,80.60
2023-02-27T09:11:19.540Z,80.50
2023-02-27T09:12:19.794Z,80.40
2023-02-27T09:13:20.027Z,80.60
2023-02-27T09:14:20.277Z,80.81
2023-02-27T09:15:20.503Z,80.81
2023-02-27T09:16:20.783Z,80.77
2023-02-27T09:17:21.017Z,80.46
2023-02-27T09:18:21.253Z,80.46
2023-02-27T09:19:21.493Z,80.57
2023-02-27T09:20:21.724Z,80.36
2023-02-27T09:21:21.966Z,80.36
2023-02-27T09:22:22.245Z,80.57
2023-02-27T09:23:22.475Z,80.15
2023-02-27T09:24:22.725Z,79.94
2023-02-27T09:25:22.978Z,80.05
2023-02-27T09:26:39.708Z,80.22
2023-02-27T09:27:24.538Z,80.11
2023-02-27T09:28:23.827Z,80.11
2023-02-27T09:29:24.086Z,80.22
2023-02-27T09:30:24.333Z,80.22
2023-02-27T09:31:24.567Z,79.87
2023-02-27T09:32:24.888Z,79.55
2023-02-27T09:33:25.027Z,79.35
2023-02-27T09:34:25.270Z,79.03
2023-02-27T09:35:25.672Z,79.14
2023-02-27T09:36:26.231Z,79.14
2023-02-27T09:37:26.097Z,79.24
2023-02-27T09:38:26.376Z,79.24
2023-02-27T09:39:26.592Z,79.35
2023-02-27T09:40:26.831Z,79.14
2023-02-27T09:41:27.451Z,78.93
2023-02-27T09:42:27.366Z,78.52
2023-02-27T09:43:27.609Z,78.31
2023-02-27T09:44:43.500Z,78.52
2023-02-27T09:45:29.171Z,78.62
2023-02-27T09:46:28.786Z,78.83
2023-02-27T09:47:28.760Z,79.03
2023-02-27T09:48:28.996Z,79.03
2023-02-27T09:49:29.224Z,79.03
2023-02-27T09:50:29.547Z,79.14
2023-02-27T09:51:30.007Z,79.24
2023-02-27T09:52:30.012Z,79.10
2023-02-27T09:53:30.218Z,79.10
2023-02-27T09:54:30.498Z,78.89
2023-02-27T09:55:30.704Z,78.58
2023-02-27T09:56:30.940Z,78.23
2023-02-27T09:57:31.179Z,78.13
2023-02-27T09:58:31.423Z,78.13
2023-02-27T09:59:32.462Z,77.92
2023-02-27T10:00:31.877Z,77.92
2023-02-27T10:01:32.115Z,77.82
2023-02-27T10:02:32.442Z,77.82
2023-02-27T10:03:32.710Z,77.68
2023-02-27T10:04:32.978Z,77.47
2023-02-27T10:05:33.220Z,77.26
2023-02-27T10:06:33.465Z,77.06
2023-02-27T10:07:33.712Z,76.75
2023-02-27T10:08:33.984Z,76.75
2023-02-27T10:09:34.224Z,76.54
2023-02-27T10:10:34.476Z,76.64
2023-02-27T10:11:34.698Z,76.33
2023-02-27T10:12:35.036Z,76.19
2023-02-27T10:13:35.356Z,76.19
2023-02-27T10:14:35.625Z,76.19
2023-02-27T10:15:35.902Z,76.19
2023-02-27T10:16:36.238Z,75.88
2023-02-27T10:17:36.530Z,75.88
2023-02-27T10:18:36.800Z,75.78
2023-02-27T10:19:37.089Z,75.54
2023-02-27T10:20:37.354Z,75.02
2023-02-27T10:21:37.609Z,74.81
2023-02-27T10:22:37.909Z,74.50
2023-02-27T10:23:38.210Z,74.29
2023-02-27T10:24:38.510Z,74.19
2023-02-27T10:25:38.790Z,74.19
2023-02-27T10:26:39.062Z,74.19
2023-02-27T10:27:39.331Z,74.19
2023-02-27T10:28:39.629Z,74.19
2023-02-27T10:29:39.909Z,74.40
2023-02-27T10:30:40.272Z,74.40
2023-02-27T10:31:40.428Z,74.40
2023-02-27T10:32:40.685Z,74.40
2023-02-27T10:33:40.986Z,73.88
2023-02-27T10:34:41.233Z,73.77
2023-02-27T10:35:41.552Z,73.57
2023-02-27T10:36:41.823Z,72.63
2023-02-27T10:37:42.060Z,72.53
2023-02-27T10:38:42.340Z,71.70
2023-02-27T10:39:42.571Z,71.70
2023-02-27T10:40:42.855Z,71.80
2023-02-27T10:41:43.141Z,71.59
2023-02-27T10:42:43.427Z,71.80
2023-02-27T10:43:43.698Z,72.11
2023-02-27T10:44:43.988Z,72.32
2023-02-27T10:45:44.252Z,72.74
2023-02-27T10:46:44.592Z,72.63
2023-02-27T10:47:44.787Z,72.94
2023-02-27T10:48:45.043Z,72.84
2023-02-27T10:49:45.303Z,72.94
2023-02-27T10:50:45.572Z,73.15
2023-02-27T10:51:45.837Z,73.36
2023-02-27T10:52:46.111Z,73.15
2023-02-27T10:53:46.380Z,72.42
2023-02-27T10:54:46.674Z,72.74
2023-02-27T10:55:46.939Z,72.74
2023-02-27T10:56:47.196Z,72.80
2023-02-27T10:57:47.473Z,72.80
2023-02-27T10:58:47.730Z,72.18
2023-02-27T10:59:47.994Z,71.87
2023-02-27T11:00:48.268Z,72.08
2023-02-27T11:01:48.550Z,72.08
2023-02-27T11:02:48.824Z,72.18
2023-02-27T11:03:49.092Z,72.18
2023-02-27T11:04:49.410Z,72.05
2023-02-27T11:05:49.715Z,72.15
2023-02-27T11:06:49.976Z,72.15
2023-02-27T11:07:51.005Z,72.25
2023-02-27T11:08:50.600Z,72.15
2023-02-27T11:09:50.881Z,71.94
2023-02-27T11:10:51.164Z,71.63
2023-02-27T11:11:51.404Z,71.42
2023-02-27T11:12:51.699Z,71.73
2023-02-27T11:13:51.950Z,72.15
2023-02-27T11:14:52.200Z,72.36
2023-02-27T11:15:53.305Z,71.94
2023-02-27T11:16:52.735Z,71.94
2023-02-27T11:17:53.053Z,72.01
2023-02-27T11:18:54.096Z,71.91
2023-02-27T11:19:53.535Z,71.84
2023-02-27T11:20:54.359Z,71.59
2023-02-27T11:21:54.068Z,71.22
2023-02-27T11:22:54.361Z,71.01
2023-02-27T11:23:56.089Z,71.11
2023-02-27T11:24:55.182Z,70.49
2023-02-27T11:25:55.155Z,68.73
2023-02-27T11:26:55.450Z,68.31
2023-02-27T11:27:55.718Z,68.21
2023-02-27T11:28:55.969Z,68.21
2023-02-27T11:29:56.237Z,67.90
2023-02-27T11:30:56.542Z,68.62
2023-02-27T11:31:56.852Z,69.24
2023-02-27T11:32:57.108Z,69.04
2023-02-27T11:33:57.363Z,67.17
2023-02-27T11:34:57.651Z,66.72
2023-02-27T11:35:58.513Z,66.31
2023-02-27T11:36:58.194Z,66.72
2023-02-27T11:37:58.452Z,67.86
2023-02-27T11:38:59.087Z,68.38
2023-02-27T11:39:59.042Z,68.80
2023-02-27T11:40:59.304Z,68.87
2023-02-27T11:41:59.592Z,69.08
2023-02-27T11:42:59.854Z,69.29
2023-02-27T11:44:00.107Z,69.08
2023-02-27T11:45:00.382Z,68.77
2023-02-27T11:46:13.412Z,67.73
2023-02-27T11:47:01.970Z,67.42
2023-02-27T11:48:01.525Z,67.91
2023-02-27T11:49:01.631Z,67.80
2023-02-27T11:50:01.904Z,67.18
2023-02-27T11:51:02.190Z,65.73
2023-02-27T11:52:02.436Z,64.59
2023-02-27T11:53:02.748Z,64.49
2023-02-27T11:54:03.013Z,63.97
2023-02-27T11:55:03.299Z,62.94
2023-02-27T11:56:03.549Z,62.52
2023-02-27T11:57:03.810Z,62.84
2023-02-27T11:58:04.071Z,63.46
2023-02-27T11:59:04.334Z,63.97
2023-02-27T12:00:04.578Z,63.56
2023-02-27T12:01:04.852Z,62.42
2023-02-27T12:02:05.102Z,63.25
2023-02-27T12:03:05.586Z,63.76
2023-02-27T12:04:05.735Z,63.97
2023-02-27T12:05:05.981Z,60.35
2023-02-27T12:06:06.237Z,57.66
2023-02-27T12:07:06.489Z,56.93
2023-02-27T12:08:06.770Z,58.18
2023-02-27T12:09:07.020Z,57.97
2023-02-27T12:10:07.287Z,56.41
2023-02-27T12:11:14.211Z,54.86
2023-02-27T12:12:08.819Z,56.00
2023-02-27T12:13:08.050Z,55.79
2023-02-27T12:14:08.342Z,55.10
2023-02-27T12:15:08.614Z,55.20
2023-02-27T12:16:08.921Z,55.79
2023-02-27T12:17:09.126Z,56.41
2023-02-27T12:18:09.363Z,56.52
2023-02-27T12:19:09.631Z,56.41
2023-02-27T12:20:09.904Z,56.10
2023-02-27T12:21:10.163Z,56.93
2023-02-27T12:22:10.423Z,56.73
2023-02-27T12:23:10.692Z,57.53
2023-02-27T12:24:10.963Z,57.73
2023-02-27T12:25:11.216Z,58.15
2023-02-27T12:26:11.476Z,58.36
2023-02-27T12:27:11.741Z,59.08
2023-02-27T12:28:12.005Z,58.46
2023-02-27T12:29:12.333Z,58.46
2023-02-27T12:30:12.630Z,59.29
2023-02-27T12:31:12.915Z,60.04
2023-02-27T12:32:13.345Z,60.66
2023-02-27T12:33:13.492Z,60.87
2023-02-27T12:34:13.749Z,61.07
2023-02-27T12:35:14.010Z,61.18
2023-02-27T12:36:14.284Z,61.07
2023-02-27T12:37:14.551Z,61.28
2023-02-27T12:38:14.839Z,61.69
2023-02-27T12:39:15.190Z,61.49
2023-02-27T12:40:15.428Z,60.87
2023-02-27T12:41:15.715Z,60.89
2023-02-27T12:42:16.002Z,59.86
2023-02-27T12:43:16.295Z,59.86
2023-02-27T12:44:16.543Z,60.27
2023-02-27T12:45:16.783Z,60.27
2023-02-27T12:46:17.049Z,59.73
2023-02-27T12:47:17.302Z,59.31
2023-02-27T12:48:17.581Z,57.45
2023-02-27T12:49:25.471Z,57.35
2023-02-27T12:50:18.077Z,57.14
2023-02-27T12:51:18.339Z,57.24
2023-02-27T12:52:18.622Z,57.14
2023-02-27T12:53:18.927Z,56.73
2023-02-27T12:54:19.204Z,57.45
2023-02-27T12:55:19.421Z,57.73
2023-02-27T12:56:19.664Z,57.73